Time,TemperatureF,DewpointF,PressureIn,WindDirection,WindDirectionDegrees,WindSpeedMPH,WindSpeedGustMPH,Humidity,HourlyPrecipIn,Conditions,Clouds,dailyrainin,SoftwareType,DateUTC
2013-06-07 00:00:00,45.7,36.1,29.84,WSW,237,0.0,0.0,69,0.00,,,0.00,Wunderground v.1.15,2013-06-07 06:00:00,
2013-06-07 00:10:00,45.4,36.2,29.84,WSW,237,0.0,0.0,70,0.00,,,0.00,Wunderground v.1.15,2013-06-07 06:10:00,
2013-06-07 00:15:00,45.2,36.0,29.86,WSW,237,0.0,0.0,70,0.00,,,0.00,Wunderground v.1.15,2013-06-07 06:15:00,
2013-06-07 00:25:00,44.9,35.7,29.86,WSW,237,0.0,0.0,70,0.00,,,0.00,Wunderground v.1.15,2013-06-07 06:25:00,
2013-06-07 00:30:00,44.8,36.0,29.80,WSW,237,0.0,0.0,71,0.00,,,0.00,Wunderground v.1.15,2013-06-07 06:30:00,
2013-06-07 00:40:00,44.3,35.1,29.80,WSW,237,0.0,0.0,70,0.00,,,0.00,Wunderground v.1.15,2013-06-07 06:40:00,
2013-06-07 00:50:00,44.2,34.7,29.81,WSW,237,0.0,0.0,69,0.00,,,0.00,Wunderground v.1.15,2013-06-07 06:50:00,
2013-06-07 00:55:00,44.1,34.9,29.81,WSW,237,0.0,0.0,70,0.00,,,0.00,Wunderground v.1.15,2013-06-07 06:55:00,
2013-06-07 01:05:00,44.1,34.6,29.81,WSW,237,0.0,0.0,69,0.00,,,0.00,Wunderground v.1.15,2013-06-07 07:05:00,
2013-06-07 01:10:00,43.9,34.7,29.81,WSW,237,0.0,0.0,70,0.00,,,0.00,Wunderground v.1.15,2013-06-07 07:10:00,
2013-06-07 01:15:00,43.8,34.6,29.80,WSW,237,0.0,0.0,70,0.00,,,0.00,Wunderground v.1.15,2013-06-07 07:15:00,
2013-06-07 01:25:00,43.5,34.4,29.80,WSW,237,0.0,0.0,70,0.00,,,0.00,Wunderground v.1.15,2013-06-07 07:25:00,
2013-06-07 01:30:00,43.3,34.5,29.80,WSW,237,0.0,0.0,71,0.00,,,0.00,Wunderground v.1.15,2013-06-07 07:30:00,
2013-06-07 01:40:00,43.2,34.4,29.80,WSW,237,0.0,0.0,71,0.00,,,0.00,Wunderground v.1.15,2013-06-07 07:40:00,
2013-06-07 01:45:00,43.1,34.3,29.80,WSW,237,0.0,0.0,71,0.00,,,0.00,Wunderground v.1.15,2013-06-07 07:45:00,
2013-06-07 01:55:00,42.8,34.0,29.80,WSW,237,0.0,0.0,71,0.00,,,0.00,Wunderground v.1.15,2013-06-07 07:55:00,
2013-06-07 02:00:00,42.6,33.9,29.79,WSW,237,0.0,0.0,71,0.00,,,0.00,Wunderground v.1.15,2013-06-07 08:00:00,
2013-06-07 02:10:00,42.2,33.5,29.79,WSW,237,0.0,0.0,71,0.00,,,0.00,Wunderground v.1.15,2013-06-07 08:10:00,
2013-06-07 02:15:00,42.1,33.7,29.80,WSW,237,0.0,0.0,72,0.00,,,0.00,Wunderground v.1.15,2013-06-07 08:15:00,
2013-06-07 02:20:00,41.8,33.4,29.80,WSW,237,0.0,0.0,72,0.00,,,0.00,Wunderground v.1.15,2013-06-07 08:20:00,
2013-06-07 02:30:00,41.6,33.6,29.82,WSW,237,0.0,0.0,73,0.00,,,0.00,Wunderground v.1.15,2013-06-07 08:30:00,
2013-06-07 02:40:00,41.5,33.5,29.82,WSW,237,0.0,0.0,73,0.00,,,0.00,Wunderground v.1.15,2013-06-07 08:40:00,
2013-06-07 02:45:00,41.2,33.2,29.81,WSW,237,0.0,0.0,73,0.00,,,0.00,Wunderground v.1.15,2013-06-07 08:45:00,
2013-06-07 02:55:00,41.1,33.1,29.81,WSW,237,0.0,0.0,73,0.00,,,0.00,Wunderground v.1.15,2013-06-07 08:55:00,
2013-06-07 03:00:00,40.9,32.9,29.80,WSW,237,0.0,0.0,73,0.00,,,0.00,Wunderground v.1.15,2013-06-07 09:00:00,
2013-06-07 03:10:00,40.9,32.9,29.80,WSW,237,0.0,0.0,73,0.00,,,0.00,Wunderground v.1.15,2013-06-07 09:10:00,
2013-06-07 03:15:00,40.8,33.2,29.80,WSW,237,0.0,0.0,74,0.00,,,0.00,Wunderground v.1.15,2013-06-07 09:15:00,
2013-06-07 03:25:00,40.8,32.8,29.80,WSW,237,0.0,0.0,73,0.00,,,0.00,Wunderground v.1.15,2013-06-07 09:25:00,
2013-06-07 03:30:00,40.5,32.9,29.80,WSW,237,0.0,0.0,74,0.00,,,0.00,Wunderground v.1.15,2013-06-07 09:30:00,
2013-06-07 03:40:00,40.2,32.6,29.80,WSW,237,0.0,0.0,74,0.00,,,0.00,Wunderground v.1.15,2013-06-07 09:40:00,
2013-06-07 03:45:00,39.8,32.5,29.80,WSW,237,0.0,0.0,75,0.00,,,0.00,Wunderground v.1.15,2013-06-07 09:45:00,
2013-06-07 03:55:00,39.8,32.5,29.80,WSW,237,0.0,0.0,75,0.00,,,0.00,Wunderground v.1.15,2013-06-07 09:55:00,
2013-06-07 04:00:00,40.1,32.8,29.80,WSW,237,0.0,0.0,75,0.00,,,0.00,Wunderground v.1.15,2013-06-07 10:00:00,
2013-06-07 04:10:00,39.6,32.0,29.80,WSW,237,0.0,0.0,74,0.00,,,0.00,Wunderground v.1.15,2013-06-07 10:10:00,
2013-06-07 04:15:00,39.5,31.9,29.80,WSW,237,0.0,0.0,74,0.00,,,0.00,Wunderground v.1.15,2013-06-07 10:15:00,
2013-06-07 04:20:00,39.5,32.2,29.80,WSW,237,0.0,0.0,75,0.00,,,0.00,Wunderground v.1.15,2013-06-07 10:20:00,
2013-06-07 04:30:00,39.6,32.7,29.80,WSW,237,0.0,0.0,76,0.00,,,0.00,Wunderground v.1.15,2013-06-07 10:30:00,
2013-06-07 04:35:00,39.6,32.7,29.80,WSW,237,0.0,0.0,76,0.00,,,0.00,Wunderground v.1.15,2013-06-07 10:35:00,
2013-06-07 04:40:00,39.8,32.8,29.80,WSW,237,0.0,0.0,76,0.00,,,0.00,Wunderground v.1.15,2013-06-07 10:40:00,
2013-06-07 04:50:00,39.8,32.8,29.80,WSW,237,0.0,0.0,76,0.00,,,0.00,Wunderground v.1.15,2013-06-07 10:50:00,
2013-06-07 04:55:00,39.8,32.8,29.80,WSW,237,0.0,0.0,76,0.00,,,0.00,Wunderground v.1.15,2013-06-07 10:55:00,
2013-06-07 05:00:00,39.8,32.8,29.79,WSW,237,0.0,0.0,76,0.00,,,0.00,Wunderground v.1.15,2013-06-07 11:00:00,
2013-06-07 05:10:00,39.8,32.8,29.79,WSW,237,0.0,0.0,76,0.00,,,0.00,Wunderground v.1.15,2013-06-07 11:10:00,
2013-06-07 05:15:00,39.8,32.8,29.80,WSW,237,0.0,0.0,76,0.00,,,0.00,Wunderground v.1.15,2013-06-07 11:15:00,
2013-06-07 05:25:00,39.6,33.0,29.80,WSW,237,0.0,0.0,77,0.00,,,0.00,Wunderground v.1.15,2013-06-07 11:25:00,
2013-06-07 05:30:00,39.8,33.2,29.84,WSW,237,0.0,0.0,77,0.00,,,0.00,Wunderground v.1.15,2013-06-07 11:30:00,
2013-06-07 05:40:00,39.9,33.3,29.84,WSW,237,0.0,0.0,77,0.00,,,0.00,Wunderground v.1.15,2013-06-07 11:40:00,
2013-06-07 05:50:00,40.1,33.8,29.84,WSW,237,0.0,0.0,78,0.00,,,0.00,Wunderground v.1.15,2013-06-07 11:50:00,
2013-06-07 05:55:00,40.2,33.9,29.84,WSW,237,0.0,0.0,78,0.00,,,0.00,Wunderground v.1.15,2013-06-07 11:55:00,
2013-06-07 06:00:00,40.2,33.9,29.85,WSW,237,0.0,0.0,78,0.00,,,0.00,Wunderground v.1.15,2013-06-07 12:00:00,
2013-06-07 06:10:00,40.2,33.6,29.85,WSW,237,0.0,0.0,77,0.00,,,0.00,Wunderground v.1.15,2013-06-07 12:10:00,
2013-06-07 06:15:00,40.3,34.0,29.85,WSW,237,0.0,0.0,78,0.00,,,0.00,Wunderground v.1.15,2013-06-07 12:15:00,
2013-06-07 06:25:00,40.6,34.6,29.85,WSW,237,0.0,0.0,79,0.00,,,0.00,Wunderground v.1.15,2013-06-07 12:25:00,
2013-06-07 06:30:00,41.1,35.4,29.85,WSW,237,0.0,0.0,80,0.00,,,0.00,Wunderground v.1.15,2013-06-07 12:30:00,
2013-06-07 06:40:00,41.9,35.9,29.85,WSW,237,0.0,0.0,79,0.00,,,0.00,Wunderground v.1.15,2013-06-07 12:40:00,
2013-06-07 06:45:00,42.2,36.2,29.84,WSW,237,0.0,0.0,79,0.00,,,0.00,Wunderground v.1.15,2013-06-07 12:45:00,
2013-06-07 06:55:00,43.2,36.5,29.84,WSW,237,0.0,0.0,77,0.00,,,0.00,Wunderground v.1.15,2013-06-07 12:55:00,
2013-06-07 07:00:00,43.6,36.9,29.81,WSW,237,0.0,0.0,77,0.00,,,0.00,Wunderground v.1.15,2013-06-07 13:00:00,
2013-06-07 07:10:00,44.9,36.8,29.81,WSW,237,0.0,0.0,73,0.00,,,0.00,Wunderground v.1.15,2013-06-07 13:10:00,
2013-06-07 07:15:00,45.4,36.9,29.79,WSW,237,0.0,0.0,72,0.00,,,0.00,Wunderground v.1.15,2013-06-07 13:15:00,
2013-06-07 07:25:00,45.8,36.9,29.79,WSW,237,0.0,0.0,71,0.00,,,0.00,Wunderground v.1.15,2013-06-07 13:25:00,
2013-06-07 07:30:00,46.0,37.1,29.82,WSW,237,0.0,0.0,71,0.00,,,0.00,Wunderground v.1.15,2013-06-07 13:30:00,
2013-06-07 07:40:00,46.4,37.1,29.82,WSW,237,0.0,0.0,70,0.00,,,0.00,Wunderground v.1.15,2013-06-07 13:40:00,
2013-06-07 07:50:00,47.4,37.4,29.80,WSW,246,0.0,0.0,68,0.00,,,0.00,Wunderground v.1.15,2013-06-07 13:50:00,
2013-06-07 07:55:00,48.0,37.6,29.80,WSW,246,0.0,0.0,67,0.00,,,0.00,Wunderground v.1.15,2013-06-07 13:55:00,
2013-06-07 08:00:00,48.6,37.4,29.80,WSW,246,0.0,0.0,65,0.00,,,0.00,Wunderground v.1.15,2013-06-07 14:00:00,
2013-06-07 08:10:00,49.5,38.6,29.80,WSW,246,0.0,0.0,66,0.00,,,0.00,Wunderground v.1.15,2013-06-07 14:10:00,
2013-06-07 08:15:00,49.9,38.6,29.79,WSW,248,0.0,0.0,65,0.00,,,0.00,Wunderground v.1.15,2013-06-07 14:15:00,
2013-06-07 08:25:00,49.8,38.1,29.79,West,260,0.0,0.0,64,0.00,,,0.00,Wunderground v.1.15,2013-06-07 14:25:00,
2013-06-07 08:30:00,49.8,38.5,29.83,West,260,0.0,0.0,65,0.00,,,0.00,Wunderground v.1.15,2013-06-07 14:30:00,
2013-06-07 08:40:00,50.2,38.5,29.83,West,260,0.0,0.0,64,0.00,,,0.00,Wunderground v.1.15,2013-06-07 14:40:00,
2013-06-07 08:45:00,50.8,37.8,29.80,West,260,0.0,0.0,61,0.00,,,0.00,Wunderground v.1.15,2013-06-07 14:45:00,
2013-06-07 08:55:00,52.3,35.7,29.80,West,260,0.0,0.0,53,0.00,,,0.00,Wunderground v.1.15,2013-06-07 14:55:00,
2013-06-07 09:00:00,52.9,36.2,29.78,West,260,0.0,0.0,53,0.00,,,0.00,Wunderground v.1.15,2013-06-07 15:00:00,
2013-06-07 09:10:00,54.2,36.5,29.78,West,260,0.0,0.0,51,0.00,,,0.00,Wunderground v.1.15,2013-06-07 15:10:00,
2013-06-07 09:15:00,55.1,35.7,29.76,West,274,0.0,0.0,48,0.00,,,0.00,Wunderground v.1.15,2013-06-07 15:15:00,
2013-06-07 09:25:00,56.7,38.3,29.76,West,275,0.0,0.0,50,0.00,,,0.00,Wunderground v.1.15,2013-06-07 15:25:00,
2013-06-07 09:30:00,57.6,39.1,29.77,West,277,0.0,0.0,50,0.00,,,0.00,Wunderground v.1.15,2013-06-07 15:30:00,
2013-06-07 09:40:00,59.3,37.4,29.77,North,0,0.0,0.0,44,0.00,,,0.00,Wunderground v.1.15,2013-06-07 15:40:00,
2013-06-07 09:45:00,60.1,36.9,29.75,North,0,0.0,0.0,42,0.00,,,0.00,Wunderground v.1.15,2013-06-07 15:45:00,
2013-06-07 09:55:00,61.5,38.8,29.75,North,0,0.0,0.0,43,0.00,,,0.00,Wunderground v.1.15,2013-06-07 15:55:00,
2013-06-07 10:00:00,62.7,36.0,29.72,North,0,0.0,0.0,37,0.00,,,0.00,Wunderground v.1.15,2013-06-07 16:00:00,
2013-06-07 10:10:00,64.3,36.8,29.72,North,0,0.0,0.0,36,0.00,,,0.00,Wunderground v.1.15,2013-06-07 16:10:00,
2013-06-07 10:15:00,65.0,38.8,29.69,North,0,0.0,0.0,38,0.00,,,0.00,Wunderground v.1.15,2013-06-07 16:15:00,
2013-06-07 10:25:00,66.6,35.0,29.69,North,4,0.0,0.0,31,0.00,,,0.00,Wunderground v.1.15,2013-06-07 16:25:00,
2013-06-07 10:30:00,67.6,36.7,29.66,North,6,0.0,0.0,32,0.00,,,0.00,Wunderground v.1.15,2013-06-07 16:30:00,
2013-06-07 10:40:00,69.3,34.8,29.66,East,99,0.0,0.0,28,0.00,,,0.00,Wunderground v.1.15,2013-06-07 16:40:00,
2013-06-07 10:45:00,69.6,34.1,29.64,SSW,198,0.0,1.0,27,0.00,,,0.00,Wunderground v.1.15,2013-06-07 16:45:00,
2013-06-07 10:55:00,69.9,30.4,29.64,SSE,162,2.0,2.0,23,0.00,,,0.00,Wunderground v.1.15,2013-06-07 16:55:00,
2013-06-07 11:00:00,70.4,29.7,29.64,SSW,205,2.0,6.0,22,0.00,,,0.00,Wunderground v.1.15,2013-06-07 17:00:00,
2013-06-07 11:10:00,69.3,28.8,29.64,NE,51,2.0,4.0,22,0.00,,,0.00,Wunderground v.1.15,2013-06-07 17:10:00,
2013-06-07 11:15:00,67.1,28.0,29.68,NNE,31,5.0,5.0,23,0.00,,,0.00,Wunderground v.1.15,2013-06-07 17:15:00,
2013-06-07 11:20:00,66.0,28.1,29.68,North,3,4.0,4.0,24,0.00,,,0.00,Wunderground v.1.15,2013-06-07 17:20:00,
2013-06-07 11:25:00,65.3,26.5,29.68,NNE,14,3.0,10.0,23,0.00,,,0.00,Wunderground v.1.15,2013-06-07 17:25:00,
2013-06-07 11:30:00,64.8,27.1,29.71,NE,40,4.0,4.0,24,0.00,,,0.00,Wunderground v.1.15,2013-06-07 17:30:00,
2013-06-07 11:40:00,63.4,31.4,29.71,ESE,116,5.0,5.0,30,0.00,,,0.00,Wunderground v.1.15,2013-06-07 17:40:00,
2013-06-07 11:45:00,64.0,31.9,29.74,WNW,291,5.0,13.0,30,0.00,,,0.00,Wunderground v.1.15,2013-06-07 17:45:00,
2013-06-07 11:55:00,65.8,30.9,29.74,SSE,160,3.0,3.0,27,0.00,,,0.00,Wunderground v.1.15,2013-06-07 17:55:00,
2013-06-07 12:00:00,65.6,31.6,29.71,SSW,199,2.0,2.0,28,0.00,,,0.00,Wunderground v.1.15,2013-06-07 18:00:00,
2013-06-07 12:10:00,65.5,30.6,29.71,West,263,1.0,1.0,27,0.00,,,0.00,Wunderground v.1.15,2013-06-07 18:10:00,
2013-06-07 12:15:00,66.0,31.0,29.70,SSE,158,2.0,2.0,27,0.00,,,0.00,Wunderground v.1.15,2013-06-07 18:15:00,
2013-06-07 12:25:00,67.6,32.4,29.70,ESE,117,4.0,4.0,27,0.00,,,0.00,Wunderground v.1.15,2013-06-07 18:25:00,
2013-06-07 12:35:00,66.3,32.2,29.71,SSW,203,5.0,8.0,28,0.00,,,0.00,Wunderground v.1.15,2013-06-07 18:35:00,
2013-06-07 12:40:00,66.9,31.8,29.71,SE,144,3.0,3.0,27,0.00,,,0.00,Wunderground v.1.15,2013-06-07 18:40:00,
2013-06-07 12:45:00,67.8,30.7,29.70,SSW,213,3.0,3.0,25,0.00,,,0.00,Wunderground v.1.15,2013-06-07 18:45:00,
2013-06-07 12:55:00,67.9,31.7,29.70,SSE,160,1.0,3.0,26,0.00,,,0.00,Wunderground v.1.15,2013-06-07 18:55:00,
2013-06-07 13:00:00,68.3,33.0,29.67,WNW,302,2.0,7.0,27,0.00,,,0.00,Wunderground v.1.15,2013-06-07 19:00:00,
2013-06-07 13:10:00,69.3,30.9,29.67,West,265,3.0,3.0,24,0.00,,,0.00,Wunderground v.1.15,2013-06-07 19:10:00,
2013-06-07 13:15:00,69.3,31.9,29.66,NW,322,3.0,3.0,25,0.00,,,0.00,Wunderground v.1.15,2013-06-07 19:15:00,
2013-06-07 13:25:00,69.4,33.0,29.66,West,274,3.0,3.0,26,0.00,,,0.00,Wunderground v.1.15,2013-06-07 19:25:00,
2013-06-07 13:40:00,70.3,31.8,29.67,NW,318,3.0,3.0,24,0.00,,,0.00,Wunderground v.1.15,2013-06-07 19:40:00,
2013-06-07 13:45:00,70.9,32.3,29.65,WNW,294,2.0,3.0,24,0.00,,,0.00,Wunderground v.1.15,2013-06-07 19:45:00,
2013-06-07 13:55:00,71.8,32.0,29.65,SW,215,2.0,2.0,23,0.00,,,0.00,Wunderground v.1.15,2013-06-07 19:55:00,
2013-06-07 14:05:00,73.0,33.0,29.63,North,350,1.0,3.0,23,0.00,,,0.00,Wunderground v.1.15,2013-06-07 20:05:00,
2013-06-07 14:15:00,70.8,39.5,29.63,North,0,7.0,16.0,32,0.00,,,0.00,Wunderground v.1.15,2013-06-07 20:15:00,
2013-06-07 14:20:00,70.3,38.2,29.63,North,356,5.0,5.0,31,0.00,,,0.00,Wunderground v.1.15,2013-06-07 20:20:00,
2013-06-07 14:30:00,68.8,40.7,29.66,North,0,8.0,11.0,36,0.00,,,0.00,Wunderground v.1.15,2013-06-07 20:30:00,
2013-06-07 14:35:00,69.1,40.3,29.66,North,1,8.0,11.0,35,0.00,,,0.00,Wunderground v.1.15,2013-06-07 20:35:00,
2013-06-07 14:45:00,67.8,39.9,29.68,North,0,7.0,9.0,36,0.00,,,0.00,Wunderground v.1.15,2013-06-07 20:45:00,
2013-06-07 15:00:00,66.3,39.2,29.70,North,359,2.0,2.0,37,0.00,,,0.00,Wunderground v.1.15,2013-06-07 21:00:00,
2013-06-07 15:10:00,66.0,39.7,29.70,North,0,2.0,7.0,38,0.00,,,0.00,Wunderground v.1.15,2013-06-07 21:10:00,
2013-06-07 15:15:00,67.3,38.0,29.68,North,1,2.0,7.0,34,0.00,,,0.00,Wunderground v.1.15,2013-06-07 21:15:00,
2013-06-07 15:25:00,69.1,36.3,29.68,NNE,14,2.0,2.0,30,0.00,,,0.00,Wunderground v.1.15,2013-06-07 21:25:00,
2013-06-07 15:30:00,69.3,35.7,29.68,North,0,2.0,2.0,29,0.00,,,0.00,Wunderground v.1.15,2013-06-07 21:30:00,
2013-06-07 15:40:00,68.8,36.9,29.68,North,7,1.0,1.0,31,0.00,,,0.00,Wunderground v.1.15,2013-06-07 21:40:00,
2013-06-07 15:45:00,68.9,36.2,29.69,North,7,0.0,1.0,30,0.00,,,0.00,Wunderground v.1.15,2013-06-07 21:45:00,
2013-06-07 15:55:00,67.8,33.5,29.69,South,191,1.0,3.0,28,0.00,,,0.00,Wunderground v.1.15,2013-06-07 21:55:00,
2013-06-07 16:00:00,67.8,34.4,29.68,NNE,27,2.0,7.0,29,0.00,,,0.00,Wunderground v.1.15,2013-06-07 22:00:00,
2013-06-07 16:05:00,68.6,33.3,29.68,NE,56,3.0,7.0,27,0.00,,,0.00,Wunderground v.1.15,2013-06-07 22:05:00,
2013-06-07 16:15:00,69.6,29.0,29.67,North,359,1.0,5.0,22,0.00,,,0.00,Wunderground v.1.15,2013-06-07 22:15:00,
2013-06-07 16:20:00,69.8,28.1,29.67,NNE,23,1.0,1.0,21,0.00,,,0.00,Wunderground v.1.15,2013-06-07 22:20:00,
2013-06-07 16:30:00,72.5,32.6,29.62,East,95,0.0,0.0,23,0.00,,,0.00,Wunderground v.1.15,2013-06-07 22:30:00,
2013-06-07 16:40:00,72.1,32.2,29.62,North,357,0.0,0.0,23,0.00,,,0.00,Wunderground v.1.15,2013-06-07 22:40:00,
2013-06-07 16:45:00,70.6,29.9,29.63,NW,326,0.0,2.0,22,0.00,,,0.00,Wunderground v.1.15,2013-06-07 22:45:00,
2013-06-07 16:55:00,69.6,30.1,29.63,West,268,0.0,0.0,23,0.00,,,0.00,Wunderground v.1.15,2013-06-07 22:55:00,
2013-06-07 17:00:00,70.3,29.6,29.62,North,349,2.0,3.0,22,0.00,,,0.00,Wunderground v.1.15,2013-06-07 23:00:00,
2013-06-07 17:10:00,71.1,30.3,29.62,NW,306,5.0,5.0,22,0.00,,,0.00,Wunderground v.1.15,2013-06-07 23:10:00,
2013-06-07 17:15:00,72.0,33.2,29.59,WNW,285,3.0,5.0,24,0.00,,,0.00,Wunderground v.1.15,2013-06-07 23:15:00,
2013-06-07 17:25:00,73.3,32.1,29.59,North,0,1.0,19.0,22,0.00,,,0.00,Wunderground v.1.15,2013-06-07 23:25:00,
2013-06-07 17:30:00,72.8,34.9,29.59,NNE,20,6.0,6.0,25,0.00,,,0.00,Wunderground v.1.15,2013-06-07 23:30:00,
2013-06-07 17:40:00,73.3,37.3,29.59,NNE,20,4.0,4.0,27,0.00,,,0.00,Wunderground v.1.15,2013-06-07 23:40:00,
2013-06-07 17:45:00,73.0,37.0,29.59,NNE,17,3.0,4.0,27,0.00,,,0.00,Wunderground v.1.15,2013-06-07 23:45:00,
2013-06-07 17:55:00,72.5,37.5,29.59,North,359,5.0,6.0,28,0.00,,,0.00,Wunderground v.1.15,2013-06-07 23:55:00,
2013-06-07 18:00:00,71.6,35.8,29.57,East,95,5.0,5.0,27,0.00,,,0.00,Wunderground v.1.15,2013-06-08 00:00:00,
2013-06-07 18:15:00,71.8,33.0,29.58,WSW,247,3.0,3.0,24,0.00,,,0.00,Wunderground v.1.15,2013-06-08 00:15:00,
2013-06-07 18:20:00,71.8,35.0,29.58,WNW,288,2.0,2.0,26,0.00,,,0.00,Wunderground v.1.15,2013-06-08 00:20:00,
2013-06-07 18:30:00,72.0,26.1,29.55,WNW,295,3.0,5.0,18,0.00,,,0.00,Wunderground v.1.15,2013-06-08 00:30:00,
2013-06-07 18:35:00,72.0,26.1,29.55,WNW,284,3.0,5.0,18,0.00,,,0.00,Wunderground v.1.15,2013-06-08 00:35:00,
2013-06-07 18:40:00,72.1,26.2,29.55,WNW,295,2.0,7.0,18,0.00,,,0.00,Wunderground v.1.15,2013-06-08 00:40:00,
2013-06-07 18:50:00,72.1,31.1,29.56,North,3,3.0,3.0,22,0.00,,,0.00,Wunderground v.1.15,2013-06-08 00:50:00,
2013-06-07 18:55:00,71.5,35.7,29.56,North,1,3.0,3.0,27,0.00,,,0.00,Wunderground v.1.15,2013-06-08 00:55:00,
2013-06-07 19:00:00,70.4,35.7,29.55,NNE,14,3.0,3.0,28,0.00,,,0.00,Wunderground v.1.15,2013-06-08 01:00:00,
2013-06-07 19:10:00,69.4,35.7,29.55,NNE,24,0.0,0.0,29,0.00,,,0.00,Wunderground v.1.15,2013-06-08 01:10:00,
2013-06-07 19:15:00,68.8,36.9,29.57,NNE,24,0.0,0.0,31,0.00,,,0.00,Wunderground v.1.15,2013-06-08 01:15:00,
2013-06-07 19:25:00,68.3,38.1,29.57,NNE,20,0.0,0.0,33,0.00,,,0.00,Wunderground v.1.15,2013-06-08 01:25:00,
2013-06-07 19:30:00,68.3,36.5,29.54,NNE,17,0.0,0.0,31,0.00,,,0.00,Wunderground v.1.15,2013-06-08 01:30:00,
2013-06-07 19:40:00,67.6,37.5,29.54,NNE,17,0.0,0.0,33,0.00,,,0.00,Wunderground v.1.15,2013-06-08 01:40:00,
2013-06-07 19:45:00,66.9,36.8,29.55,NNE,17,0.0,0.0,33,0.00,,,0.00,Wunderground v.1.15,2013-06-08 01:45:00,
2013-06-07 19:55:00,65.8,37.4,29.55,NNE,17,0.0,0.0,35,0.00,,,0.00,Wunderground v.1.15,2013-06-08 01:55:00,
2013-06-07 20:00:00,64.3,38.1,29.57,NNE,17,0.0,0.0,38,0.00,,,0.00,Wunderground v.1.15,2013-06-08 02:00:00,
2013-06-07 20:10:00,63.4,38.0,29.57,NNE,17,0.0,0.0,39,0.00,,,0.00,Wunderground v.1.15,2013-06-08 02:10:00,
2013-06-07 20:15:00,62.6,37.9,29.58,NNE,17,0.0,0.0,40,0.00,,,0.00,Wunderground v.1.15,2013-06-08 02:15:00,
2013-06-07 20:25:00,61.0,37.7,29.58,SW,226,0.0,0.0,42,0.00,,,0.00,Wunderground v.1.15,2013-06-08 02:25:00,
2013-06-07 20:30:00,60.4,38.4,29.55,SW,226,0.0,0.0,44,0.00,,,0.00,Wunderground v.1.15,2013-06-08 02:30:00,
2013-06-07 20:35:00,59.0,38.2,29.55,SW,226,0.0,0.0,46,0.00,,,0.00,Wunderground v.1.15,2013-06-08 02:35:00,
2013-06-07 20:45:00,57.8,38.2,29.58,SW,226,0.0,0.0,48,0.00,,,0.00,Wunderground v.1.15,2013-06-08 02:45:00,
2013-06-07 20:50:00,57.5,37.9,29.58,SW,226,0.0,0.0,48,0.00,,,0.00,Wunderground v.1.15,2013-06-08 02:50:00,
2013-06-07 21:00:00,57.0,37.5,29.57,SW,226,0.0,0.0,48,0.00,,,0.00,Wunderground v.1.15,2013-06-08 03:00:00,
2013-06-07 21:10:00,56.7,37.2,29.57,SW,226,0.0,0.0,48,0.00,,,0.00,Wunderground v.1.15,2013-06-08 03:10:00,
2013-06-07 21:15:00,56.6,36.0,29.57,SW,226,0.0,0.0,46,0.00,,,0.00,Wunderground v.1.15,2013-06-08 03:15:00,
2013-06-07 21:25:00,58.9,30.6,29.57,West,270,0.0,0.0,34,0.00,,,0.00,Wunderground v.1.15,2013-06-08 03:25:00,
2013-06-07 21:35:00,61.5,28.9,29.48,South,178,0.0,0.0,29,0.00,,,0.00,Wunderground v.1.15,2013-06-08 03:35:00,
2013-06-07 21:40:00,62.9,29.3,29.48,WNW,282,1.0,2.0,28,0.00,,,0.00,Wunderground v.1.15,2013-06-08 03:40:00,
2013-06-07 21:45:00,63.7,29.1,29.45,NW,326,2.0,7.0,27,0.00,,,0.00,Wunderground v.1.15,2013-06-08 03:45:00,
2013-06-07 21:55:00,64.5,28.8,29.45,South,175,3.0,3.0,26,0.00,,,0.00,Wunderground v.1.15,2013-06-08 03:55:00,
2013-06-07 22:05:00,64.7,29.0,29.43,WSW,251,2.0,7.0,26,0.00,,,0.00,Wunderground v.1.15,2013-06-08 04:05:00,
2013-06-07 22:10:00,64.7,29.0,29.43,WNW,294,1.0,1.0,26,0.00,,,0.00,Wunderground v.1.15,2013-06-08 04:10:00,
2013-06-07 22:15:00,64.7,29.9,29.44,WSW,246,1.0,4.0,27,0.00,,,0.00,Wunderground v.1.15,2013-06-08 04:15:00,
2013-06-07 22:25:00,64.3,29.6,29.44,SSE,162,1.0,6.0,27,0.00,,,0.00,Wunderground v.1.15,2013-06-08 04:25:00,
2013-06-07 22:30:00,64.2,29.5,29.41,South,186,0.0,0.0,27,0.00,,,0.00,Wunderground v.1.15,2013-06-08 04:30:00,
2013-06-07 22:35:00,64.0,30.2,29.41,SW,226,1.0,1.0,28,0.00,,,0.00,Wunderground v.1.15,2013-06-08 04:35:00,
2013-06-07 22:40:00,63.9,30.1,29.41,SSW,195,1.0,1.0,28,0.00,,,0.00,Wunderground v.1.15,2013-06-08 04:40:00,
2013-06-07 22:45:00,63.7,30.0,29.40,West,270,0.0,1.0,28,0.00,,,0.00,Wunderground v.1.15,2013-06-08 04:45:00,
2013-06-07 22:55:00,63.7,29.1,29.40,SSE,154,1.0,3.0,27,0.00,,,0.00,Wunderground v.1.15,2013-06-08 04:55:00,
2013-06-07 23:00:00,63.7,29.1,29.40,South,182,1.0,1.0,27,0.00,,,0.00,Wunderground v.1.15,2013-06-08 05:00:00,
2013-06-07 23:10:00,63.5,28.9,29.40,South,181,0.0,0.0,27,0.00,,,0.00,Wunderground v.1.15,2013-06-08 05:10:00,
2013-06-07 23:15:00,63.5,29.8,29.40,South,186,0.0,0.0,28,0.00,,,0.00,Wunderground v.1.15,2013-06-08 05:15:00,
2013-06-07 23:25:00,63.7,29.1,29.40,WNW,296,2.0,10.0,27,0.00,,,0.00,Wunderground v.1.15,2013-06-08 05:25:00,
2013-06-07 23:30:00,63.7,29.1,29.41,WNW,298,2.0,6.0,27,0.00,,,0.00,Wunderground v.1.15,2013-06-08 05:30:00,
2013-06-07 23:40:00,63.7,29.1,29.41,SSW,212,2.0,2.0,27,0.00,,,0.00,Wunderground v.1.15,2013-06-08 05:40:00,
2013-06-07 23:45:00,63.7,29.1,29.40,SW,233,1.0,2.0,27,0.00,,,0.00,Wunderground v.1.15,2013-06-08 05:45:00,
2013-06-07 23:55:00,64.0,28.4,29.40,WNW,299,3.0,3.0,26,0.00,,,0.00,Wunderground v.1.15,2013-06-08 05:55:00,